sensor_id;sensor_type;location;lat;lon;timestamp;P1;durP1;ratioP1;P2;durP2;ratioP2
18853;SDS011;9556;49.374;19.446;2023-07-30T00:02:02;2.30;;;1.73;;
18853;SDS011;9556;49.374;19.446;2023-07-30T00:04:30;3.60;;;1.65;;
18853;SDS011;9556;49.374;19.446;2023-07-30T00:06:57;2.25;;;1.60;;
18853;SDS011;9556;49.374;19.446;2023-07-30T00:09:24;4.85;;;1.70;;
18853;SDS011;9556;49.374;19.446;2023-07-30T00:11:51;2.17;;;1.67;;
18853;SDS011;9556;49.374;19.446;2023-07-30T00:14:18;2.95;;;1.50;;
18853;SDS011;9556;49.374;19.446;2023-07-30T00:16:47;2.65;;;1.50;;
18853;SDS011;9556;49.374;19.446;2023-07-30T00:19:14;3.40;;;1.55;;
18853;SDS011;9556;49.374;19.446;2023-07-30T00:21:41;3.20;;;1.90;;
18853;SDS011;9556;49.374;19.446;2023-07-30T00:24:11;3.25;;;1.80;;
18853;SDS011;9556;49.374;19.446;2023-07-30T00:26:38;4.00;;;1.60;;
18853;SDS011;9556;49.374;19.446;2023-07-30T00:29:05;3.00;;;1.90;;
18853;SDS011;9556;49.374;19.446;2023-07-30T00:31:32;5.07;;;1.70;;
18853;SDS011;9556;49.374;19.446;2023-07-30T00:34:01;3.17;;;1.70;;
18853;SDS011;9556;49.374;19.446;2023-07-30T00:36:28;2.85;;;1.50;;
18853;SDS011;9556;49.374;19.446;2023-07-30T00:38:55;3.03;;;1.63;;
18853;SDS011;9556;49.374;19.446;2023-07-30T00:41:22;2.13;;;1.52;;
18853;SDS011;9556;49.374;19.446;2023-07-30T00:43:50;3.70;;;1.63;;
18853;SDS011;9556;49.374;19.446;2023-07-30T00:46:17;3.50;;;2.00;;
18853;SDS011;9556;49.374;19.446;2023-07-30T00:48:44;2.90;;;1.75;;
18853;SDS011;9556;49.374;19.446;2023-07-30T00:51:13;2.55;;;1.65;;
18853;SDS011;9556;49.374;19.446;2023-07-30T00:53:40;3.55;;;1.55;;
18853;SDS011;9556;49.374;19.446;2023-07-30T00:56:07;3.67;;;1.70;;
18853;SDS011;9556;49.374;19.446;2023-07-30T00:58:34;1.98;;;1.58;;
18853;SDS011;9556;49.374;19.446;2023-07-30T01:01:01;3.25;;;1.70;;
18853;SDS011;9556;49.374;19.446;2023-07-30T01:03:29;2.17;;;1.63;;
18853;SDS011;9556;49.374;19.446;2023-07-30T01:05:56;3.42;;;1.60;;
18853;SDS011;9556;49.374;19.446;2023-07-30T01:08:24;4.25;;;1.83;;
18853;SDS011;9556;49.374;19.446;2023-07-30T01:10:51;3.33;;;1.77;;
18853;SDS011;9556;49.374;19.446;2023-07-30T01:13:19;2.00;;;1.67;;
18853;SDS011;9556;49.374;19.446;2023-07-30T01:15:47;2.50;;;1.75;;
18853;SDS011;9556;49.374;19.446;2023-07-30T01:18:14;3.25;;;1.70;;
18853;SDS011;9556;49.374;19.446;2023-07-30T01:20:41;2.10;;;1.50;;
18853;SDS011;9556;49.374;19.446;2023-07-30T01:23:09;2.70;;;1.70;;
18853;SDS011;9556;49.374;19.446;2023-07-30T01:25:37;2.80;;;1.67;;
18853;SDS011;9556;49.374;19.446;2023-07-30T01:28:04;3.38;;;1.40;;
18853;SDS011;9556;49.374;19.446;2023-07-30T01:30:33;2.97;;;1.50;;
18853;SDS011;9556;49.374;19.446;2023-07-30T01:33:01;3.58;;;1.70;;
18853;SDS011;9556;49.374;19.446;2023-07-30T01:35:28;2.00;;;1.58;;
18853;SDS011;9556;49.374;19.446;2023-07-30T01:37:56;2.25;;;1.48;;
18853;SDS011;9556;49.374;19.446;2023-07-30T01:40:25;2.22;;;1.60;;
18853;SDS011;9556;49.374;19.446;2023-07-30T01:42:52;2.92;;;1.42;;
18853;SDS011;9556;49.374;19.446;2023-07-30T01:45:19;2.55;;;1.60;;
18853;SDS011;9556;49.374;19.446;2023-07-30T01:47:47;2.70;;;1.75;;
18853;SDS011;9556;49.374;19.446;2023-07-30T01:50:14;2.70;;;1.70;;
18853;SDS011;9556;49.374;19.446;2023-07-30T01:52:41;2.58;;;1.40;;
18853;SDS011;9556;49.374;19.446;2023-07-30T01:55:08;2.10;;;1.60;;
18853;SDS011;9556;49.374;19.446;2023-07-30T01:57:37;3.78;;;1.83;;
18853;SDS011;9556;49.374;19.446;2023-07-30T02:00:05;2.35;;;1.65;;
18853;SDS011;9556;49.374;19.446;2023-07-30T02:02:32;1.50;;;1.40;;
18853;SDS011;9556;49.374;19.446;2023-07-30T02:05:00;2.63;;;1.65;;
18853;SDS011;9556;49.374;19.446;2023-07-30T02:07:27;2.90;;;1.75;;
18853;SDS011;9556;49.374;19.446;2023-07-30T02:09:55;7.25;;;1.95;;
18853;SDS011;9556;49.374;19.446;2023-07-30T02:12:22;2.17;;;1.60;;
18853;SDS011;9556;49.374;19.446;2023-07-30T02:14:51;4.82;;;1.80;;
18853;SDS011;9556;49.374;19.446;2023-07-30T02:17:18;3.60;;;1.50;;
18853;SDS011;9556;49.374;19.446;2023-07-30T02:19:45;2.03;;;1.63;;
18853;SDS011;9556;49.374;19.446;2023-07-30T02:22:13;2.60;;;1.60;;
18853;SDS011;9556;49.374;19.446;2023-07-30T02:24:40;3.90;;;1.70;;
18853;SDS011;9556;49.374;19.446;2023-07-30T02:27:07;3.15;;;1.80;;
18853;SDS011;9556;49.374;19.446;2023-07-30T02:29:34;3.25;;;1.60;;
18853;SDS011;9556;49.374;19.446;2023-07-30T02:32:03;2.20;;;1.60;;
18853;SDS011;9556;49.374;19.446;2023-07-30T02:34:30;2.67;;;1.50;;
18853;SDS011;9556;49.374;19.446;2023-07-30T02:36:57;2.22;;;1.58;;
18853;SDS011;9556;49.374;19.446;2023-07-30T02:39:24;1.60;;;1.50;;
18853;SDS011;9556;49.374;19.446;2023-07-30T02:41:52;1.90;;;1.63;;
18853;SDS011;9556;49.374;19.446;2023-07-30T02:44:19;1.65;;;1.50;;
18853;SDS011;9556;49.374;19.446;2023-07-30T02:46:46;3.40;;;1.83;;
18853;SDS011;9556;49.374;19.446;2023-07-30T02:49:14;2.50;;;1.60;;
18853;SDS011;9556;49.374;19.446;2023-07-30T02:51:41;2.67;;;1.60;;
18853;SDS011;9556;49.374;19.446;2023-07-30T02:54:13;2.42;;;1.60;;
18853;SDS011;9556;49.374;19.446;2023-07-30T02:56:41;1.92;;;1.50;;
18853;SDS011;9556;49.374;19.446;2023-07-30T02:59:08;2.22;;;1.60;;
18853;SDS011;9556;49.374;19.446;2023-07-30T03:01:35;2.05;;;1.55;;
18853;SDS011;9556;49.374;19.446;2023-07-30T03:04:03;2.72;;;1.52;;
18853;SDS011;9556;49.374;19.446;2023-07-30T03:06:32;1.95;;;1.60;;
18853;SDS011;9556;49.374;19.446;2023-07-30T03:08:59;3.58;;;1.60;;
18853;SDS011;9556;49.374;19.446;2023-07-30T03:11:26;1.95;;;1.60;;
18853;SDS011;9556;49.374;19.446;2023-07-30T03:13:53;1.92;;;1.58;;
18853;SDS011;9556;49.374;19.446;2023-07-30T03:16:20;1.58;;;1.40;;
18853;SDS011;9556;49.374;19.446;2023-07-30T03:18:47;1.70;;;1.52;;
18853;SDS011;9556;49.374;19.446;2023-07-30T03:21:14;2.33;;;1.67;;
18853;SDS011;9556;49.374;19.446;2023-07-30T03:23:43;2.75;;;1.80;;
18853;SDS011;9556;49.374;19.446;2023-07-30T03:26:10;2.28;;;1.73;;
18853;SDS011;9556;49.374;19.446;2023-07-30T03:28:37;2.15;;;1.70;;
18853;SDS011;9556;49.374;19.446;2023-07-30T03:31:04;2.70;;;1.60;;
18853;SDS011;9556;49.374;19.446;2023-07-30T03:33:32;3.92;;;1.67;;
18853;SDS011;9556;49.374;19.446;2023-07-30T03:35:59;2.50;;;1.70;;
18853;SDS011;9556;49.374;19.446;2023-07-30T03:38:27;4.15;;;1.77;;
18853;SDS011;9556;49.374;19.446;2023-07-30T03:40:56;1.77;;;1.60;;
18853;SDS011;9556;49.374;19.446;2023-07-30T03:43:23;2.47;;;1.58;;
18853;SDS011;9556;49.374;19.446;2023-07-30T03:45:50;2.60;;;1.63;;
18853;SDS011;9556;49.374;19.446;2023-07-30T03:48:17;3.08;;;1.55;;
18853;SDS011;9556;49.374;19.446;2023-07-30T03:50:45;2.17;;;1.60;;
18853;SDS011;9556;49.374;19.446;2023-07-30T03:53:12;3.67;;;1.55;;
18853;SDS011;9556;49.374;19.446;2023-07-30T03:55:39;2.53;;;1.70;;
18853;SDS011;9556;49.374;19.446;2023-07-30T03:58:08;1.65;;;1.38;;
18853;SDS011;9556;49.374;19.446;2023-07-30T04:00:35;2.63;;;1.45;;
18853;SDS011;9556;49.374;19.446;2023-07-30T04:03:02;2.58;;;1.52;;
18853;SDS011;9556;49.374;19.446;2023-07-30T04:05:30;5.07;;;1.90;;
18853;SDS011;9556;49.374;19.446;2023-07-30T04:07:57;2.97;;;1.80;;
18853;SDS011;9556;49.374;19.446;2023-07-30T04:10:24;2.25;;;1.50;;
18853;SDS011;9556;49.374;19.446;2023-07-30T04:12:51;1.98;;;1.58;;
18853;SDS011;9556;49.374;19.446;2023-07-30T04:15:20;2.25;;;1.65;;
18853;SDS011;9556;49.374;19.446;2023-07-30T04:17:47;3.70;;;1.60;;
18853;SDS011;9556;49.374;19.446;2023-07-30T04:20:14;2.05;;;1.30;;
18853;SDS011;9556;49.374;19.446;2023-07-30T04:22:42;2.20;;;1.52;;
18853;SDS011;9556;49.374;19.446;2023-07-30T04:25:09;3.15;;;1.77;;
18853;SDS011;9556;49.374;19.446;2023-07-30T04:27:37;2.40;;;1.60;;
18853;SDS011;9556;49.374;19.446;2023-07-30T04:30:04;2.17;;;1.48;;
18853;SDS011;9556;49.374;19.446;2023-07-30T04:32:33;1.90;;;1.70;;
18853;SDS011;9556;49.374;19.446;2023-07-30T04:35:00;7.43;;;1.63;;
18853;SDS011;9556;49.374;19.446;2023-07-30T04:37:28;1.92;;;1.60;;
18853;SDS011;9556;49.374;19.446;2023-07-30T04:39:56;1.98;;;1.63;;
18853;SDS011;9556;49.374;19.446;2023-07-30T04:42:23;1.80;;;1.60;;
18853;SDS011;9556;49.374;19.446;2023-07-30T04:44:50;1.70;;;1.60;;
18853;SDS011;9556;49.374;19.446;2023-07-30T04:47:17;2.22;;;1.75;;
18853;SDS011;9556;49.374;19.446;2023-07-30T04:49:46;2.65;;;1.90;;
18853;SDS011;9556;49.374;19.446;2023-07-30T04:52:13;2.65;;;1.63;;
18853;SDS011;9556;49.374;19.446;2023-07-30T04:54:40;3.42;;;1.75;;
18853;SDS011;9556;49.374;19.446;2023-07-30T04:57:07;2.13;;;1.80;;
18853;SDS011;9556;49.374;19.446;2023-07-30T04:59:34;3.10;;;1.92;;
18853;SDS011;9556;49.374;19.446;2023-07-30T05:02:01;2.50;;;1.50;;
18853;SDS011;9556;49.374;19.446;2023-07-30T05:04:28;2.05;;;1.85;;
18853;SDS011;9556;49.374;19.446;2023-07-30T05:06:57;3.35;;;1.80;;
18853;SDS011;9556;49.374;19.446;2023-07-30T05:09:24;2.17;;;1.58;;
18853;SDS011;9556;49.374;19.446;2023-07-30T05:11:51;1.95;;;1.70;;
18853;SDS011;9556;49.374;19.446;2023-07-30T05:14:18;2.38;;;1.60;;
18853;SDS011;9556;49.374;19.446;2023-07-30T05:16:45;3.97;;;1.90;;
18853;SDS011;9556;49.374;19.446;2023-07-30T05:19:13;2.47;;;1.75;;
18853;SDS011;9556;49.374;19.446;2023-07-30T05:21:40;2.63;;;2.13;;
18853;SDS011;9556;49.374;19.446;2023-07-30T05:24:08;2.45;;;1.70;;
18853;SDS011;9556;49.374;19.446;2023-07-30T05:26:35;2.30;;;1.83;;
18853;SDS011;9556;49.374;19.446;2023-07-30T05:29:02;3.03;;;1.88;;
18853;SDS011;9556;49.374;19.446;2023-07-30T05:31:29;2.03;;;1.63;;
18853;SDS011;9556;49.374;19.446;2023-07-30T05:33:57;2.67;;;1.95;;
18853;SDS011;9556;49.374;19.446;2023-07-30T05:36:24;3.28;;;1.98;;
18853;SDS011;9556;49.374;19.446;2023-07-30T05:38:51;2.58;;;2.00;;
18853;SDS011;9556;49.374;19.446;2023-07-30T05:41:19;2.42;;;1.70;;
18853;SDS011;9556;49.374;19.446;2023-07-30T05:43:47;2.55;;;2.05;;
18853;SDS011;9556;49.374;19.446;2023-07-30T05:46:14;2.45;;;1.98;;
18853;SDS011;9556;49.374;19.446;2023-07-30T05:48:41;3.45;;;2.10;;
18853;SDS011;9556;49.374;19.446;2023-07-30T05:51:08;2.08;;;1.80;;
18853;SDS011;9556;49.374;19.446;2023-07-30T05:53:36;1.88;;;1.75;;
18853;SDS011;9556;49.374;19.446;2023-07-30T05:56:03;2.33;;;1.92;;
18853;SDS011;9556;49.374;19.446;2023-07-30T05:58:32;2.30;;;1.80;;
18853;SDS011;9556;49.374;19.446;2023-07-30T06:00:59;3.65;;;1.80;;
18853;SDS011;9556;49.374;19.446;2023-07-30T06:03:26;2.15;;;1.75;;
18853;SDS011;9556;49.374;19.446;2023-07-30T06:05:53;2.00;;;1.80;;
18853;SDS011;9556;49.374;19.446;2023-07-30T06:08:21;2.85;;;1.80;;
18853;SDS011;9556;49.374;19.446;2023-07-30T06:10:48;2.53;;;1.85;;
18853;SDS011;9556;49.374;19.446;2023-07-30T06:13:15;2.08;;;1.70;;
18853;SDS011;9556;49.374;19.446;2023-07-30T06:15:43;3.72;;;1.80;;
18853;SDS011;9556;49.374;19.446;2023-07-30T06:18:10;2.25;;;1.70;;
18853;SDS011;9556;49.374;19.446;2023-07-30T06:20:38;3.65;;;1.67;;
18853;SDS011;9556;49.374;19.446;2023-07-30T06:23:05;2.15;;;1.60;;
18853;SDS011;9556;49.374;19.446;2023-07-30T06:25:32;1.98;;;1.50;;
18853;SDS011;9556;49.374;19.446;2023-07-30T06:27:59;2.20;;;1.70;;
18853;SDS011;9556;49.374;19.446;2023-07-30T06:30:26;2.45;;;1.60;;
18853;SDS011;9556;49.374;19.446;2023-07-30T06:32:55;1.92;;;1.65;;
18853;SDS011;9556;49.374;19.446;2023-07-30T06:35:22;2.03;;;1.65;;
18853;SDS011;9556;49.374;19.446;2023-07-30T06:37:50;1.83;;;1.50;;
18853;SDS011;9556;49.374;19.446;2023-07-30T06:40:17;2.67;;;1.50;;
18853;SDS011;9556;49.374;19.446;2023-07-30T06:42:44;2.00;;;1.50;;
18853;SDS011;9556;49.374;19.446;2023-07-30T06:45:11;2.53;;;1.98;;
18853;SDS011;9556;49.374;19.446;2023-07-30T06:47:39;1.95;;;1.50;;
18853;SDS011;9556;49.374;19.446;2023-07-30T06:50:07;4.82;;;1.50;;
18853;SDS011;9556;49.374;19.446;2023-07-30T06:52:34;4.63;;;1.65;;
18853;SDS011;9556;49.374;19.446;2023-07-30T06:55:02;2.05;;;1.60;;
18853;SDS011;9556;49.374;19.446;2023-07-30T06:57:29;2.28;;;1.67;;
18853;SDS011;9556;49.374;19.446;2023-07-30T06:59:56;3.20;;;1.73;;
18853;SDS011;9556;49.374;19.446;2023-07-30T07:02:25;5.60;;;1.52;;
18853;SDS011;9556;49.374;19.446;2023-07-30T07:04:53;5.78;;;1.70;;
18853;SDS011;9556;49.374;19.446;2023-07-30T07:07:22;3.30;;;1.33;;
18853;SDS011;9556;49.374;19.446;2023-07-30T07:09:49;2.13;;;1.50;;
18853;SDS011;9556;49.374;19.446;2023-07-30T07:12:16;3.05;;;1.52;;
18853;SDS011;9556;49.374;19.446;2023-07-30T07:14:43;2.17;;;1.40;;
18853;SDS011;9556;49.374;19.446;2023-07-30T07:17:10;3.33;;;1.77;;
18853;SDS011;9556;49.374;19.446;2023-07-30T07:19:37;2.80;;;1.80;;
18853;SDS011;9556;49.374;19.446;2023-07-30T07:22:05;1.95;;;1.20;;
18853;SDS011;9556;49.374;19.446;2023-07-30T07:24:33;2.10;;;1.50;;
18853;SDS011;9556;49.374;19.446;2023-07-30T07:27:01;1.75;;;1.45;;
18853;SDS011;9556;49.374;19.446;2023-07-30T07:29:28;2.15;;;1.48;;
18853;SDS011;9556;49.374;19.446;2023-07-30T07:31:55;2.95;;;1.50;;
18853;SDS011;9556;49.374;19.446;2023-07-30T07:34:22;2.10;;;1.40;;
18853;SDS011;9556;49.374;19.446;2023-07-30T07:36:49;3.65;;;1.30;;
18853;SDS011;9556;49.374;19.446;2023-07-30T07:39:16;3.42;;;1.83;;
18853;SDS011;9556;49.374;19.446;2023-07-30T07:41:45;2.10;;;1.65;;
18853;SDS011;9556;49.374;19.446;2023-07-30T07:44:12;3.03;;;1.67;;
18853;SDS011;9556;49.374;19.446;2023-07-30T07:46:40;2.63;;;1.73;;
18853;SDS011;9556;49.374;19.446;2023-07-30T07:49:07;2.80;;;1.40;;
18853;SDS011;9556;49.374;19.446;2023-07-30T07:51:34;2.80;;;1.40;;
18853;SDS011;9556;49.374;19.446;2023-07-30T07:54:01;1.60;;;1.40;;
18853;SDS011;9556;49.374;19.446;2023-07-30T07:56:29;2.05;;;1.45;;
18853;SDS011;9556;49.374;19.446;2023-07-30T07:58:58;2.72;;;1.80;;
18853;SDS011;9556;49.374;19.446;2023-07-30T08:01:25;3.67;;;1.60;;
18853;SDS011;9556;49.374;19.446;2023-07-30T08:03:52;1.88;;;1.40;;
18853;SDS011;9556;49.374;19.446;2023-07-30T08:06:19;2.88;;;1.52;;
18853;SDS011;9556;49.374;19.446;2023-07-30T08:08:46;2.35;;;1.50;;
18853;SDS011;9556;49.374;19.446;2023-07-30T08:11:13;3.55;;;1.70;;
18853;SDS011;9556;49.374;19.446;2023-07-30T08:13:41;1.60;;;1.50;;
18853;SDS011;9556;49.374;19.446;2023-07-30T08:16:09;2.25;;;1.80;;
18853;SDS011;9556;49.374;19.446;2023-07-30T08:18:36;3.28;;;1.80;;
18853;SDS011;9556;49.374;19.446;2023-07-30T08:21:03;2.60;;;1.60;;
18853;SDS011;9556;49.374;19.446;2023-07-30T08:23:31;3.03;;;1.70;;
18853;SDS011;9556;49.374;19.446;2023-07-30T08:25:58;6.35;;;1.85;;
18853;SDS011;9556;49.374;19.446;2023-07-30T08:28:25;3.33;;;1.70;;
18853;SDS011;9556;49.374;19.446;2023-07-30T08:30:52;1.95;;;1.50;;
18853;SDS011;9556;49.374;19.446;2023-07-30T08:33:21;3.63;;;1.70;;
18853;SDS011;9556;49.374;19.446;2023-07-30T08:35:49;2.25;;;1.60;;
18853;SDS011;9556;49.374;19.446;2023-07-30T08:38:17;3.05;;;1.58;;
18853;SDS011;9556;49.374;19.446;2023-07-30T08:40:44;1.90;;;1.70;;
18853;SDS011;9556;49.374;19.446;2023-07-30T08:43:11;2.75;;;1.80;;
18853;SDS011;9556;49.374;19.446;2023-07-30T08:45:38;5.53;;;1.65;;
18853;SDS011;9556;49.374;19.446;2023-07-30T08:48:05;2.10;;;1.70;;
18853;SDS011;9556;49.374;19.446;2023-07-30T08:50:34;4.22;;;1.70;;
18853;SDS011;9556;49.374;19.446;2023-07-30T08:53:02;5.25;;;1.98;;
18853;SDS011;9556;49.374;19.446;2023-07-30T08:55:31;4.53;;;1.98;;
18853;SDS011;9556;49.374;19.446;2023-07-30T08:57:59;3.92;;;1.90;;
18853;SDS011;9556;49.374;19.446;2023-07-30T09:00:30;2.95;;;1.70;;
18853;SDS011;9556;49.374;19.446;2023-07-30T09:02:58;5.85;;;2.05;;
18853;SDS011;9556;49.374;19.446;2023-07-30T09:05:27;3.75;;;1.65;;
18853;SDS011;9556;49.374;19.446;2023-07-30T09:07:56;3.92;;;1.85;;
18853;SDS011;9556;49.374;19.446;2023-07-30T09:10:24;5.82;;;4.07;;
18853;SDS011;9556;49.374;19.446;2023-07-30T09:12:52;7.82;;;5.03;;
18853;SDS011;9556;49.374;19.446;2023-07-30T09:15:20;5.53;;;3.65;;
18853;SDS011;9556;49.374;19.446;2023-07-30T09:17:55;5.93;;;3.00;;
18853;SDS011;9556;49.374;19.446;2023-07-30T09:20:22;13.18;;;4.32;;
18853;SDS011;9556;49.374;19.446;2023-07-30T09:22:49;9.00;;;3.00;;
18853;SDS011;9556;49.374;19.446;2023-07-30T09:25:19;8.82;;;3.17;;
18853;SDS011;9556;49.374;19.446;2023-07-30T09:27:47;9.05;;;3.67;;
18853;SDS011;9556;49.374;19.446;2023-07-30T09:30:15;8.45;;;3.53;;
18853;SDS011;9556;49.374;19.446;2023-07-30T09:32:50;6.55;;;2.72;;
18853;SDS011;9556;49.374;19.446;2023-07-30T09:35:17;4.13;;;2.38;;
18853;SDS011;9556;49.374;19.446;2023-07-30T09:37:45;3.78;;;1.98;;
18853;SDS011;9556;49.374;19.446;2023-07-30T09:40:12;3.42;;;2.15;;
18853;SDS011;9556;49.374;19.446;2023-07-30T09:42:43;3.38;;;1.98;;
18853;SDS011;9556;49.374;19.446;2023-07-30T09:45:16;3.78;;;2.25;;
18853;SDS011;9556;49.374;19.446;2023-07-30T09:47:45;2.25;;;1.67;;
18853;SDS011;9556;49.374;19.446;2023-07-30T09:50:13;3.83;;;2.00;;
18853;SDS011;9556;49.374;19.446;2023-07-30T09:52:41;2.78;;;1.88;;
18853;SDS011;9556;49.374;19.446;2023-07-30T09:55:08;2.92;;;1.88;;
18853;SDS011;9556;49.374;19.446;2023-07-30T09:57:35;4.30;;;1.67;;
18853;SDS011;9556;49.374;19.446;2023-07-30T10:00:05;3.05;;;1.60;;
18853;SDS011;9556;49.374;19.446;2023-07-30T10:02:36;3.60;;;1.70;;
18853;SDS011;9556;49.374;19.446;2023-07-30T10:05:06;3.70;;;1.60;;
18853;SDS011;9556;49.374;19.446;2023-07-30T10:07:34;2.42;;;1.48;;
18853;SDS011;9556;49.374;19.446;2023-07-30T10:10:02;3.13;;;1.70;;
18853;SDS011;9556;49.374;19.446;2023-07-30T10:12:31;3.67;;;1.80;;
18853;SDS011;9556;49.374;19.446;2023-07-30T10:15:00;2.83;;;1.65;;
18853;SDS011;9556;49.374;19.446;2023-07-30T10:17:28;3.30;;;1.55;;
18853;SDS011;9556;49.374;19.446;2023-07-30T10:19:56;2.47;;;1.80;;
18853;SDS011;9556;49.374;19.446;2023-07-30T10:22:24;2.92;;;1.60;;
18853;SDS011;9556;49.374;19.446;2023-07-30T10:24:57;2.33;;;1.48;;
18853;SDS011;9556;49.374;19.446;2023-07-30T10:27:25;3.83;;;1.70;;
18853;SDS011;9556;49.374;19.446;2023-07-30T10:30:07;2.13;;;1.60;;
18853;SDS011;9556;49.374;19.446;2023-07-30T10:32:40;3.05;;;1.60;;
18853;SDS011;9556;49.374;19.446;2023-07-30T10:35:07;4.95;;;1.60;;
18853;SDS011;9556;49.374;19.446;2023-07-30T10:37:34;3.25;;;1.70;;
18853;SDS011;9556;49.374;19.446;2023-07-30T10:40:14;2.28;;;1.70;;
18853;SDS011;9556;49.374;19.446;2023-07-30T10:42:42;2.05;;;1.50;;
18853;SDS011;9556;49.374;19.446;2023-07-30T10:45:09;2.95;;;1.90;;
18853;SDS011;9556;49.374;19.446;2023-07-30T10:47:36;1.70;;;1.42;;
18853;SDS011;9556;49.374;19.446;2023-07-30T10:50:05;2.20;;;1.52;;
18853;SDS011;9556;49.374;19.446;2023-07-30T10:52:35;2.15;;;1.60;;
18853;SDS011;9556;49.374;19.446;2023-07-30T10:55:03;1.90;;;1.60;;
18853;SDS011;9556;49.374;19.446;2023-07-30T10:57:31;1.88;;;1.50;;
18853;SDS011;9556;49.374;19.446;2023-07-30T10:59:58;4.22;;;1.60;;
18853;SDS011;9556;49.374;19.446;2023-07-30T11:02:27;2.33;;;1.58;;
18853;SDS011;9556;49.374;19.446;2023-07-30T11:04:55;4.00;;;1.80;;
18853;SDS011;9556;49.374;19.446;2023-07-30T11:07:23;2.20;;;1.70;;
18853;SDS011;9556;49.374;19.446;2023-07-30T11:09:58;2.03;;;1.48;;
18853;SDS011;9556;49.374;19.446;2023-07-30T11:12:26;2.33;;;1.65;;
18853;SDS011;9556;49.374;19.446;2023-07-30T11:14:59;2.65;;;1.58;;
18853;SDS011;9556;49.374;19.446;2023-07-30T11:17:26;2.10;;;1.58;;
18853;SDS011;9556;49.374;19.446;2023-07-30T11:19:54;2.22;;;1.63;;
18853;SDS011;9556;49.374;19.446;2023-07-30T11:22:30;3.25;;;1.90;;
18853;SDS011;9556;49.374;19.446;2023-07-30T11:24:57;3.10;;;1.98;;
18853;SDS011;9556;49.374;19.446;2023-07-30T11:27:26;4.60;;;2.08;;
18853;SDS011;9556;49.374;19.446;2023-07-30T11:29:54;2.55;;;1.95;;
18853;SDS011;9556;49.374;19.446;2023-07-30T11:32:21;2.10;;;1.70;;
18853;SDS011;9556;49.374;19.446;2023-07-30T11:34:50;3.15;;;2.00;;
18853;SDS011;9556;49.374;19.446;2023-07-30T11:37:18;2.30;;;1.90;;
18853;SDS011;9556;49.374;19.446;2023-07-30T11:39:46;3.03;;;2.00;;
18853;SDS011;9556;49.374;19.446;2023-07-30T11:42:14;3.13;;;1.90;;
18853;SDS011;9556;49.374;19.446;2023-07-30T11:44:41;2.72;;;2.10;;
18853;SDS011;9556;49.374;19.446;2023-07-30T11:47:08;2.67;;;1.85;;
18853;SDS011;9556;49.374;19.446;2023-07-30T11:49:36;3.65;;;1.85;;
18853;SDS011;9556;49.374;19.446;2023-07-30T11:52:06;5.07;;;1.90;;
18853;SDS011;9556;49.374;19.446;2023-07-30T11:54:33;1.90;;;1.60;;
18853;SDS011;9556;49.374;19.446;2023-07-30T11:57:02;1.65;;;1.52;;
18853;SDS011;9556;49.374;19.446;2023-07-30T11:59:30;2.38;;;1.92;;
18853;SDS011;9556;49.374;19.446;2023-07-30T12:01:57;3.58;;;1.70;;
18853;SDS011;9556;49.374;19.446;2023-07-30T12:04:24;2.42;;;1.80;;
18853;SDS011;9556;49.374;19.446;2023-07-30T12:06:52;3.10;;;1.90;;
18853;SDS011;9556;49.374;19.446;2023-07-30T12:09:20;2.38;;;1.60;;
18853;SDS011;9556;49.374;19.446;2023-07-30T12:11:48;2.42;;;1.58;;
18853;SDS011;9556;49.374;19.446;2023-07-30T12:14:17;2.30;;;1.77;;
18853;SDS011;9556;49.374;19.446;2023-07-30T12:16:44;2.17;;;1.70;;
18853;SDS011;9556;49.374;19.446;2023-07-30T12:19:12;1.90;;;1.65;;
18853;SDS011;9556;49.374;19.446;2023-07-30T12:21:39;2.53;;;1.50;;
18853;SDS011;9556;49.374;19.446;2023-07-30T12:24:06;2.22;;;1.67;;
18853;SDS011;9556;49.374;19.446;2023-07-30T12:26:33;3.60;;;1.83;;
18853;SDS011;9556;49.374;19.446;2023-07-30T12:29:00;1.90;;;1.70;;
18853;SDS011;9556;49.374;19.446;2023-07-30T12:31:29;2.03;;;1.60;;
18853;SDS011;9556;49.374;19.446;2023-07-30T12:33:56;3.28;;;1.80;;
18853;SDS011;9556;49.374;19.446;2023-07-30T12:36:23;3.63;;;2.08;;
18853;SDS011;9556;49.374;19.446;2023-07-30T12:38:51;3.40;;;1.90;;
18853;SDS011;9556;49.374;19.446;2023-07-30T12:41:18;3.05;;;1.90;;
18853;SDS011;9556;49.374;19.446;2023-07-30T12:43:50;2.33;;;1.90;;
18853;SDS011;9556;49.374;19.446;2023-07-30T12:46:18;2.75;;;1.80;;
18853;SDS011;9556;49.374;19.446;2023-07-30T12:48:46;2.38;;;1.75;;
18853;SDS011;9556;49.374;19.446;2023-07-30T12:51:14;3.03;;;1.90;;
18853;SDS011;9556;49.374;19.446;2023-07-30T12:53:41;1.88;;;1.70;;
18853;SDS011;9556;49.374;19.446;2023-07-30T12:56:08;3.92;;;2.03;;
18853;SDS011;9556;49.374;19.446;2023-07-30T12:58:35;2.65;;;1.83;;
18853;SDS011;9556;49.374;19.446;2023-07-30T13:01:03;2.40;;;1.52;;
18853;SDS011;9556;49.374;19.446;2023-07-30T13:03:30;4.50;;;1.85;;
18853;SDS011;9556;49.374;19.446;2023-07-30T13:05:59;1.85;;;1.50;;
18853;SDS011;9556;49.374;19.446;2023-07-30T13:08:26;1.98;;;1.77;;
18853;SDS011;9556;49.374;19.446;2023-07-30T13:10:53;4.10;;;1.80;;
18853;SDS011;9556;49.374;19.446;2023-07-30T13:13:20;2.50;;;1.85;;
18853;SDS011;9556;49.374;19.446;2023-07-30T13:15:48;2.58;;;1.95;;
18853;SDS011;9556;49.374;19.446;2023-07-30T13:18:16;2.47;;;1.80;;
18853;SDS011;9556;49.374;19.446;2023-07-30T13:20:43;3.63;;;1.85;;
18853;SDS011;9556;49.374;19.446;2023-07-30T13:23:11;3.80;;;1.90;;
18853;SDS011;9556;49.374;19.446;2023-07-30T13:25:38;4.82;;;2.15;;
18853;SDS011;9556;49.374;19.446;2023-07-30T13:28:06;3.95;;;2.10;;
18853;SDS011;9556;49.374;19.446;2023-07-30T13:30:33;2.67;;;1.88;;
18853;SDS011;9556;49.374;19.446;2023-07-30T13:33:00;4.50;;;1.70;;
18853;SDS011;9556;49.374;19.446;2023-07-30T13:35:27;4.85;;;1.80;;
18853;SDS011;9556;49.374;19.446;2023-07-30T13:37:55;3.38;;;1.80;;
18853;SDS011;9556;49.374;19.446;2023-07-30T13:40:23;2.45;;;1.90;;
18853;SDS011;9556;49.374;19.446;2023-07-30T13:42:50;2.80;;;1.90;;
18853;SDS011;9556;49.374;19.446;2023-07-30T13:45:17;3.28;;;1.95;;
18853;SDS011;9556;49.374;19.446;2023-07-30T13:47:44;6.63;;;1.90;;
18853;SDS011;9556;49.374;19.446;2023-07-30T13:50:12;5.10;;;2.13;;
18853;SDS011;9556;49.374;19.446;2023-07-30T13:52:39;4.60;;;2.20;;
18853;SDS011;9556;49.374;19.446;2023-07-30T13:55:06;3.97;;;2.10;;
18853;SDS011;9556;49.374;19.446;2023-07-30T13:57:35;6.20;;;2.00;;
18853;SDS011;9556;49.374;19.446;2023-07-30T14:00:02;6.32;;;2.53;;
18853;SDS011;9556;49.374;19.446;2023-07-30T14:02:29;4.70;;;2.40;;
18853;SDS011;9556;49.374;19.446;2023-07-30T14:04:57;4.63;;;2.05;;
18853;SDS011;9556;49.374;19.446;2023-07-30T14:07:24;3.78;;;2.03;;
18853;SDS011;9556;49.374;19.446;2023-07-30T14:09:51;3.65;;;2.17;;
18853;SDS011;9556;49.374;19.446;2023-07-30T14:12:18;5.10;;;2.40;;
18853;SDS011;9556;49.374;19.446;2023-07-30T14:14:46;5.72;;;2.60;;
18853;SDS011;9556;49.374;19.446;2023-07-30T14:17:14;4.55;;;2.45;;
18853;SDS011;9556;49.374;19.446;2023-07-30T14:19:41;6.40;;;2.92;;
18853;SDS011;9556;49.374;19.446;2023-07-30T14:22:08;10.18;;;3.03;;
18853;SDS011;9556;49.374;19.446;2023-07-30T14:24:35;6.93;;;2.90;;
18853;SDS011;9556;49.374;19.446;2023-07-30T14:27:03;5.95;;;3.08;;
18853;SDS011;9556;49.374;19.446;2023-07-30T14:29:30;5.30;;;2.92;;
18853;SDS011;9556;49.374;19.446;2023-07-30T14:31:58;8.20;;;3.20;;
18853;SDS011;9556;49.374;19.446;2023-07-30T14:34:25;6.93;;;2.90;;
18853;SDS011;9556;49.374;19.446;2023-07-30T14:36:53;11.65;;;4.63;;
18853;SDS011;9556;49.374;19.446;2023-07-30T14:39:19;11.88;;;3.85;;
18853;SDS011;9556;49.374;19.446;2023-07-30T14:41:46;8.35;;;3.50;;
18853;SDS011;9556;49.374;19.446;2023-07-30T14:44:13;5.57;;;3.13;;
18853;SDS011;9556;49.374;19.446;2023-07-30T14:46:40;8.50;;;3.67;;
18853;SDS011;9556;49.374;19.446;2023-07-30T14:49:09;8.63;;;3.35;;
18853;SDS011;9556;49.374;19.446;2023-07-30T14:51:36;9.07;;;3.72;;